Home > Products > Valid Products > MTR

000
SAUS45 KREV 280158
MTRDRA
METAR KDRA 280152Z AUTO 18009KT 10SM CLR 13/M04 A2955 RMK AO2 SLP984
T01331039





000
SAUS45 KREV 280057
MTRDRA
METAR KDRA 280052Z AUTO 20011KT 10SM CLR 15/M06 A2957 RMK AO2 SLP988
T01501056





000
SAUS45 KREV 280057
MTRDRA
METAR KDRA 280052Z AUTO 20011KT 10SM CLR 15/M06 A2957 RMK AO2 SLP988
T01501056





000
SAUS45 KREV 272357
MTRDRA
METAR KDRA 272352Z AUTO 22014G17KT 10SM CLR 16/M07 A2957 RMK AO2
SLP990 T01611067 10172 20122 56027





000
SAUS45 KREV 272357
MTRDRA
METAR KDRA 272352Z AUTO 22014G17KT 10SM CLR 16/M07 A2957 RMK AO2
SLP990 T01611067 10172 20122 56027





000
SAUS45 KREV 272257
MTRDRA
METAR KDRA 272252Z AUTO 21013G18KT 10SM CLR 17/M07 A2959 RMK AO2
SLP995 T01671072





000
SAUS45 KREV 272257
MTRDRA
METAR KDRA 272252Z AUTO 21013G18KT 10SM CLR 17/M07 A2959 RMK AO2
SLP995 T01671072





000
SAUS45 KREV 272157
MTRDRA
METAR KDRA 272152Z AUTO 22012KT 10SM CLR 17/M08 A2962 RMK AO2 WSHFT
2127 SLP004 T01671083





000
SAUS45 KREV 272157
MTRDRA
METAR KDRA 272152Z AUTO 22012KT 10SM CLR 17/M08 A2962 RMK AO2 WSHFT
2127 SLP004 T01671083





000
SAUS45 KREV 272149
MTRDRA
SPECI KDRA 272144Z AUTO 22015G19KT 10SM CLR 17/M08 A2962 RMK AO2
WSHFT 2127 T01671078





000
SAUS45 KREV 272149
MTRDRA
SPECI KDRA 272144Z AUTO 22015G19KT 10SM CLR 17/M08 A2962 RMK AO2
WSHFT 2127 T01671078





000
SAUS45 KREV 272057
MTRDRA
METAR KDRA 272052Z AUTO 17008KT 10SM CLR 16/M07 A2966 RMK AO2 SLP020
T01611067 58036





000
SAUS45 KREV 272057
MTRDRA
METAR KDRA 272052Z AUTO 17008KT 10SM CLR 16/M07 A2966 RMK AO2 SLP020
T01611067 58036





000
SAUS45 KREV 271957
MTRDRA
METAR KDRA 271952Z AUTO 15007KT 10SM FEW100 14/M07 A2971 RMK AO2
SLP038 T01441072





000
SAUS45 KREV 271957
MTRDRA
METAR KDRA 271952Z AUTO 15007KT 10SM FEW100 14/M07 A2971 RMK AO2
SLP038 T01441072





000
SAUS45 KREV 271857
MTRDRA
METAR KDRA 271852Z AUTO 14006KT 10SM CLR 13/M08 A2975 RMK AO2 SLP050
T01331078





000
SAUS45 KREV 271857
MTRDRA
METAR KDRA 271852Z AUTO 14006KT 10SM CLR 13/M08 A2975 RMK AO2 SLP050
T01331078





000
SAUS45 KREV 271757
MTRDRA
METAR KDRA 271752Z AUTO 01008KT 10SM OVC085 13/M07 A2978 RMK AO2
SLP062 T01281067 10133 20078 51001





000
SAUS45 KREV 271757
MTRDRA
METAR KDRA 271752Z AUTO 01008KT 10SM OVC085 13/M07 A2978 RMK AO2
SLP062 T01281067 10133 20078 51001





000
SAUS45 KREV 271657
MTRDRA
METAR KDRA 271652Z AUTO 09007KT 10SM SCT085 12/M08 A2978 RMK AO2
SLP062 T01171078





000
SAUS45 KREV 271657
MTRDRA
METAR KDRA 271652Z AUTO 09007KT 10SM SCT085 12/M08 A2978 RMK AO2
SLP062 T01171078





000
SAUS45 KREV 271557
MTRDRA
METAR KDRA 271552Z AUTO 04008KT 10SM BKN085 09/M07 A2979 RMK AO2
SLP067 T00891067





000
SAUS45 KREV 271557
MTRDRA
METAR KDRA 271552Z AUTO 04008KT 10SM BKN085 09/M07 A2979 RMK AO2
SLP067 T00891067





000
SAUS45 KREV 271458
MTRDRA
METAR KDRA 271452Z AUTO 10SM SCT085 08/M07 A2978 RMK AO2 SLP062
T00831067 56002 $





000
SAUS45 KREV 271458
MTRDRA
METAR KDRA 271452Z AUTO 10SM SCT085 08/M07 A2978 RMK AO2 SLP062
T00831067 56002 $





000
SAUS45 KREV 271401
MTRDRA
METAR KDRA 271352Z AUTO 10SM OVC090 08/M07 A2978 RMK AO2 SLP062
T00831067 $





000
SAUS45 KREV 271401
MTRDRA
METAR KDRA 271352Z AUTO 10SM OVC090 08/M07 A2978 RMK AO2 SLP062
T00831067 $





000
SAUS45 KREV 271257
MTRDRA
METAR KDRA 271252Z AUTO 10SM OVC090 08/M07 A2977 RMK AO2 SLP057
T00831067 $





000
SAUS45 KREV 271157
MTRDRA
METAR KDRA 271152Z AUTO 10SM CLR 08/M07 A2979 RMK AO2 SLP060
T00831072 10117 20078 58009 $





000
SAUS45 KREV 271057
MTRDRA
METAR KDRA 271052Z AUTO 10SM CLR 08/M07 A2979 RMK AO2 SLP061
T00831072 $





000
SAUS45 KREV 270957
MTRDRA
METAR KDRA 270952Z AUTO 10SM CLR 09/M08 A2982 RMK AO2 SLP071
T00941078 $





000
SAUS45 KREV 270857
MTRDRA
METAR KDRA 270852Z AUTO 10SM CLR 09/M07 A2982 RMK AO2 SLP070
T00891072 56007 $





000
SAUS45 KREV 270757
MTRDRA
METAR KDRA 270752Z AUTO 10SM CLR 09/M07 A2982 RMK AO2 SLP074
T00941067 402060022 $





000
SAUS45 KREV 270657
MTRDRA
METAR KDRA 270652Z AUTO 10SM CLR 11/M07 A2983 RMK AO2 SLP076
T01061067 $





000
SAUS45 KREV 270557
MTRDRA
METAR KDRA 270552Z AUTO VRB04KT 10SM CLR 12/M07 A2984 RMK AO2 SLP080
T01171067 10194 20106 51008





000
SAUS45 KREV 270457
MTRDRA
METAR KDRA 270452Z AUTO 02005KT 10SM CLR 13/M08 A2983 RMK AO2 SLP079
T01281078





000
SAUS45 KREV 270457
MTRDRA
METAR KDRA 270452Z AUTO 02005KT 10SM CLR 13/M08 A2983 RMK AO2 SLP079
T01281078





000
SAUS45 KREV 270357
MTRDRA
METAR KDRA 270352Z AUTO VRB06G19KT 10SM CLR 13/M09 A2982 RMK AO2
SLP077 T01331094





000
SAUS45 KREV 270257
MTRDRA
METAR KDRA 270252Z AUTO 34009KT 10SM CLR 14/M09 A2981 RMK AO2 SLP079
T01391094 53006





000
SAUS45 KREV 270157
MTRDRA
METAR KDRA 270152Z AUTO 32008KT 10SM CLR 15/M09 A2979 RMK AO2 SLP071
T01501094





000
SAUS45 KREV 270057
MTRDRA
METAR KDRA 270052Z AUTO 31012KT 10SM CLR 18/M12 A2979 RMK AO2 SLP066
T01831122





000
SAUS45 KREV 262357
MTRDRA
METAR KDRA 262352Z AUTO 35014KT 10SM CLR 19/M13 A2979 RMK AO2 SLP067
T01941128 10206 20144 56018





000
SAUS45 KREV 262357
MTRDRA
METAR KDRA 262352Z AUTO 35014KT 10SM CLR 19/M13 A2979 RMK AO2 SLP067
T01941128 10206 20144 56018





000
SAUS45 KREV 262257
MTRDRA
METAR KDRA 262252Z AUTO 31016KT 10SM CLR 20/M11 A2980 RMK AO2 SLP068
T02001106





000
SAUS45 KREV 262257
MTRDRA
METAR KDRA 262252Z AUTO 31016KT 10SM CLR 20/M11 A2980 RMK AO2 SLP068
T02001106





000
SAUS45 KREV 262057
MTRDRA
METAR KDRA 262052Z AUTO 35015G18KT 10SM CLR 19/M08 A2985 RMK AO2
SLP085 T01891083 58031





000
SAUS45 KREV 261957
MTRDRA
METAR KDRA 261952Z 00000KT 10SM FEW100 SCT140 SCT250 17/M08 A2989
RMK AO2 SLP101 T01721083





000
SAUS45 KREV 261857
MTRDRA
METAR KDRA 261852Z 00000KT 10SM FEW100 16/M08 A2994 RMK AO2 SLP117
T01561083





000
SAUS45 KREV 261757
MTRDRA
METAR KDRA 261752Z 00000KT 10SM FEW140 14/M08 A2995 RMK AO2 SLP122
T01441078 10150 20028 58001





000
SAUS45 KREV 261657
MTRDRA
METAR KDRA 261652Z 00000KT 10SM SCT140 12/M06 A2995 RMK AO2 SLP123
T01221061





000
SAUS45 KREV 261657
MTRDRA
METAR KDRA 261652Z 00000KT 10SM SCT140 12/M06 A2995 RMK AO2 SLP123
T01221061





000
SAUS45 KREV 261558
MTRDRA
METAR KDRA 261552Z AUTO 00000KT 10SM BKN100 08/M04 A2996 RMK AO2
SLP129 T00831039





000
SAUS45 KREV 261457
MTRDRA
METAR KDRA 261452Z AUTO 00000KT 10SM OVC110 04/M01 A2996 RMK AO2
SLP131 T00391006 53004





000
SAUS45 KREV 261457
MTRDRA
METAR KDRA 261452Z AUTO 00000KT 10SM OVC110 04/M01 A2996 RMK AO2
SLP131 T00391006 53004





000
SAUS45 KREV 261400
MTRDRA
METAR KDRA 261352Z AUTO 00000KT 10SM OVC110 04/M03 A2994 RMK AO2
SLP120 T00391028





000
SAUS45 KREV 261257
MTRDRA
METAR KDRA 261252Z AUTO 12005KT 10SM CLR 03/M04 A2993 RMK AO2 SLP116
T00331039





000
SAUS45 KREV 261257
MTRDRA
METAR KDRA 261252Z AUTO 12005KT 10SM CLR 03/M04 A2993 RMK AO2 SLP116
T00331039





000
SAUS45 KREV 261157
MTRDRA
METAR KDRA 261152Z AUTO 10005KT 10SM CLR 03/M02 A2995 RMK AO2 SLP119
T00281017 10089 20022 56016





000
SAUS45 KREV 261057
MTRDRA
METAR KDRA 261052Z AUTO 04006KT 10SM CLR 06/M04 A2995 RMK AO2 SLP118
T00561039





000
SAUS45 KREV 261057
MTRDRA
METAR KDRA 261052Z AUTO 04006KT 10SM CLR 06/M04 A2995 RMK AO2 SLP118
T00561039





000
SAUS45 KREV 260957
MTRDRA
METAR KDRA 260952Z AUTO 11003KT 10SM CLR 04/M01 A2998 RMK AO2 SLP132
T00391011





000
SAUS45 KREV 260957
MTRDRA
METAR KDRA 260952Z AUTO 11003KT 10SM CLR 04/M01 A2998 RMK AO2 SLP132
T00391011





000
SAUS45 KREV 260858
MTRDRA
METAR KDRA 260852Z AUTO 03004KT 10SM CLR 06/M04 A3000 RMK AO2 SLP137
T00611039 56006





000
SAUS45 KREV 260858
MTRDRA
METAR KDRA 260852Z AUTO 03004KT 10SM CLR 06/M04 A3000 RMK AO2 SLP137
T00611039 56006





000
SAUS45 KREV 260757
MTRDRA
METAR KDRA 260752Z AUTO 00000KT 10SM CLR 06/M03 A3000 RMK AO2 SLP138
T00561028 402060000





000
SAUS45 KREV 260657
MTRDRA
METAR KDRA 260652Z AUTO 00000KT 10SM CLR 07/M03 A3001 RMK AO2 SLP142
T00671028





000
SAUS45 KREV 260657
MTRDRA
METAR KDRA 260652Z AUTO 00000KT 10SM CLR 07/M03 A3001 RMK AO2 SLP142
T00671028





000
SAUS45 KREV 260557
MTRDRA
METAR KDRA 260552Z AUTO 36004KT 10SM CLR 09/M03 A3002 RMK AO2 SLP145
T00891028 10200 20083 50004





000
SAUS45 KREV 260557
MTRDRA
METAR KDRA 260552Z AUTO 36004KT 10SM CLR 09/M03 A3002 RMK AO2 SLP145
T00891028 10200 20083 50004





000
SAUS45 KREV 260457
MTRDRA
METAR KDRA 260452Z AUTO VRB03KT 10SM CLR 09/M02 A3002 RMK AO2 SLP150
T00941022





000
SAUS45 KREV 260457
MTRDRA
METAR KDRA 260452Z AUTO VRB03KT 10SM CLR 09/M02 A3002 RMK AO2 SLP150
T00941022





000
SAUS45 KREV 260357
MTRDRA
METAR KDRA 260352Z AUTO 01004KT 10SM CLR 10/M01 A3001 RMK AO2 SLP151
T01001011





000
SAUS45 KREV 260257
MTRDRA
METAR KDRA 260252Z AUTO 04006KT 10SM CLR 12/M01 A3000 RMK AO2 SLP150
T01171006 55004





000
SAUS45 KREV 260257
MTRDRA
METAR KDRA 260252Z AUTO 04006KT 10SM CLR 12/M01 A3000 RMK AO2 SLP150
T01171006 55004





000
SAUS45 KREV 260157 COR
MTRDRA
METAR KDRA 260152Z 00000KT 10SM CLR 16/M07 A3000 RMK AO2 SLP144
T01611067





000
SAUS45 KREV 260057
MTRDRA
METAR KDRA 260052Z 22006KT 10SM CLR 18/M09 A3000 RMK AO2 SLP143
T01781094





000
SAUS45 KREV 260057
MTRDRA
METAR KDRA 260052Z 22006KT 10SM CLR 18/M09 A3000 RMK AO2 SLP143
T01781094





000
SAUS45 KREV 252357
MTRDRA
METAR KDRA 252352Z 19006KT 10SM CLR 20/M12 A3002 RMK AO2 SLP144
T02001117 10206 20128 56023





000
SAUS45 KREV 252357
MTRDRA
METAR KDRA 252352Z 19006KT 10SM CLR 20/M12 A3002 RMK AO2 SLP144
T02001117 10206 20128 56023





000
SAUS45 KREV 252257
MTRDRA
METAR KDRA 252252Z VRB04KT 10SM CLR 20/M12 A3004 RMK AO2 SLP152
T02001117





000
SAUS45 KREV 252257
MTRDRA
METAR KDRA 252252Z VRB04KT 10SM CLR 20/M12 A3004 RMK AO2 SLP152
T02001117





000
SAUS45 KREV 252157
MTRDRA
METAR KDRA 252152Z 22004KT 10SM CLR 19/M11 A3006 RMK AO2 SLP162
T01891111 $





000
SAUS45 KREV 252057
MTRDRA
METAR KDRA 252052Z 16006KT 10SM CLR 18/M10 A3009 RMK AO2 SLP170
T01781100 56028 $





000
SAUS45 KREV 252057
MTRDRA
METAR KDRA 252052Z 16006KT 10SM CLR 18/M10 A3009 RMK AO2 SLP170
T01781100 56028 $





000
SAUS45 KREV 251957
MTRDRA
METAR KDRA 251952Z 21005KT 10SM CLR 17/M11 A3012 RMK AO2 SLP182
T01721106 $





000
SAUS45 KREV 251857
MTRDRA
METAR KDRA 251852Z 27003KT 10SM CLR 16/M11 A3015 RMK AO2 SLP194
T01561106 $





000
SAUS45 KREV 251757
MTRDRA
METAR KDRA 251752Z 31003KT 10SM CLR 13/M06 A3018 RMK AO2 SLP208
T01281061 10128 20000 58001





000
SAUS45 KREV 251657
MTRDRA
METAR KDRA 251652Z AUTO 00000KT 10SM CLR 09/M06 A3020 RMK AO2 SLP214
T00941061





000
SAUS45 KREV 251557
MTRDRA
METAR KDRA 251552Z AUTO 00000KT 10SM CLR 06/M04 A3019 RMK AO2 SLP214
T00561039





000
SAUS45 KREV 251457
MTRDRA
METAR KDRA 251452Z AUTO 03003KT 10SM CLR 02/M03 A3019 RMK AO2 SLP215
T00171033 53007





000
SAUS45 KREV 251401
MTRDRA
METAR KDRA 251352Z AUTO 14003KT 10SM CLR 01/M03 A3018 RMK AO2 SLP210
T00111033





000
SAUS45 KREV 251257
MTRDRA
METAR KDRA 251252Z AUTO 00000KT 10SM CLR 02/M03 A3016 RMK AO2 SLP200
T00171028





000
SAUS45 KREV 251257
MTRDRA
METAR KDRA 251252Z AUTO 00000KT 10SM CLR 02/M03 A3016 RMK AO2 SLP200
T00171028





000
SAUS45 KREV 251157
MTRDRA
METAR KDRA 251152Z AUTO 02003KT 10SM CLR 03/M04 A3016 RMK AO2 SLP199
T00281039 10061 20011 55008





000
SAUS45 KREV 251157
MTRDRA
METAR KDRA 251152Z AUTO 02003KT 10SM CLR 03/M04 A3016 RMK AO2 SLP199
T00281039 10061 20011 55008





000
SAUS45 KREV 251057
MTRDRA
METAR KDRA 251052Z AUTO 00000KT 10SM CLR 02/M02 A3016 RMK AO2 SLP199
T00171022





000
SAUS45 KREV 250957
MTRDRA
METAR KDRA 250952Z AUTO 00000KT 10SM CLR 02/M01 A3017 RMK AO2 SLP205
T00221011





000
SAUS45 KREV 250857
MTRDRA
METAR KDRA 250852Z AUTO 00000KT 10SM CLR 04/M03 A3019 RMK AO2 SLP207
T00441028 58001





000
SAUS45 KREV 250757
MTRDRA
METAR KDRA 250752Z AUTO 11003KT 10SM CLR 04/M02 A3020 RMK AO2 SLP213
T00391022 401780006





000
SAUS45 KREV 250657
MTRDRA
METAR KDRA 250652Z AUTO 00000KT 10SM CLR 05/M02 A3020 RMK AO2 SLP214
T00501022





000
SAUS45 KREV 250556
MTRDRA
METAR KDRA 250552Z AUTO 05003KT 10SM CLR 05/M02 A3019 RMK AO2 SLP213
T00501017 10161 20050 53008





000
SAUS45 KREV 250457
MTRDRA
METAR KDRA 250452Z AUTO VRB03KT 10SM CLR 06/M02 A3018 RMK AO2 SLP209
T00611017





000
SAUS45 KREV 250357
MTRDRA
METAR KDRA 250352Z AUTO 07004KT 10SM CLR 07/M01 A3017 RMK AO2 SLP209
T00671011





000
SAUS45 KREV 250357
MTRDRA
METAR KDRA 250352Z AUTO 07004KT 10SM CLR 07/M01 A3017 RMK AO2 SLP209
T00671011





000
SAUS45 KREV 250257
MTRDRA
METAR KDRA 250252Z AUTO 09003KT 10SM CLR 09/M03 A3017 RMK AO2 SLP207
T00941028 53011





000
SAUS45 KREV 250257
MTRDRA
METAR KDRA 250252Z AUTO 09003KT 10SM CLR 09/M03 A3017 RMK AO2 SLP207
T00941028 53011





    US Dept of Commerce
    National Oceanic and Atmospheric Administration
    National Weather Service
    1325 East West Highway
    Silver Spring, MD 20910
    Page Author: NWS Internet Services Team
Disclaimer
Information Quality
Credits
Glossary
Privacy Policy
Freedom of Information Act (FOIA)
About Us
Career Opportunities